sensor_id;sensor_type;location;lat;lon;timestamp;temperature;humidity
64501;DHT22;50874;24.150;-110.320;2023-09-07T00:00:31;36.20;99.90
64501;DHT22;50874;24.150;-110.320;2023-09-07T00:02:57;36.00;99.90
64501;DHT22;50874;24.150;-110.320;2023-09-07T00:05:26;36.10;99.90
64501;DHT22;50874;24.150;-110.320;2023-09-07T00:07:52;36.20;99.90
64501;DHT22;50874;24.150;-110.320;2023-09-07T00:10:19;36.30;99.90
64501;DHT22;50874;24.150;-110.320;2023-09-07T00:12:45;36.40;99.90
64501;DHT22;50874;24.150;-110.320;2023-09-07T00:15:12;36.40;99.90
64501;DHT22;50874;24.150;-110.320;2023-09-07T00:17:38;36.50;99.90
64501;DHT22;50874;24.150;-110.320;2023-09-07T00:20:05;36.70;99.90
64501;DHT22;50874;24.150;-110.320;2023-09-07T00:22:40;36.60;99.90
64501;DHT22;50874;24.150;-110.320;2023-09-07T00:25:07;36.30;99.90
64501;DHT22;50874;24.150;-110.320;2023-09-07T00:27:34;36.10;99.90
64501;DHT22;50874;24.150;-110.320;2023-09-07T00:30:01;35.90;99.90
64501;DHT22;50874;24.150;-110.320;2023-09-07T00:32:27;35.60;99.90
64501;DHT22;50874;24.150;-110.320;2023-09-07T00:34:54;35.30;99.90
64501;DHT22;50874;24.150;-110.320;2023-09-07T00:37:20;35.20;99.90
64501;DHT22;50874;24.150;-110.320;2023-09-07T00:39:46;35.30;99.90
64501;DHT22;50874;24.150;-110.320;2023-09-07T00:42:13;35.20;99.90
64501;DHT22;50874;24.150;-110.320;2023-09-07T00:44:39;35.00;99.90
64501;DHT22;50874;24.150;-110.320;2023-09-07T00:47:06;34.70;99.90
64501;DHT22;50874;24.150;-110.320;2023-09-07T00:49:32;34.50;99.90
64501;DHT22;50874;24.150;-110.320;2023-09-07T00:51:59;34.40;99.90
64501;DHT22;50874;24.150;-110.320;2023-09-07T00:54:25;34.30;99.90
64501;DHT22;50874;24.150;-110.320;2023-09-07T00:56:52;34.10;99.90
64501;DHT22;50874;24.150;-110.320;2023-09-07T00:59:18;33.90;99.90
64501;DHT22;50874;24.150;-110.320;2023-09-07T01:01:45;33.70;99.90
64501;DHT22;50874;24.150;-110.320;2023-09-07T01:04:11;33.70;99.90
64501;DHT22;50874;24.150;-110.320;2023-09-07T01:06:44;33.50;99.90
64501;DHT22;50874;24.150;-110.320;2023-09-07T01:09:15;33.30;99.90
64501;DHT22;50874;24.150;-110.320;2023-09-07T01:11:43;33.30;99.90
64501;DHT22;50874;24.150;-110.320;2023-09-07T01:14:10;33.20;99.90
64501;DHT22;50874;24.150;-110.320;2023-09-07T01:16:37;33.20;99.90
64501;DHT22;50874;24.150;-110.320;2023-09-07T01:19:08;33.00;99.90
64501;DHT22;50874;24.150;-110.320;2023-09-07T01:21:37;32.90;99.90
64501;DHT22;50874;24.150;-110.320;2023-09-07T01:24:10;33.00;99.90
64501;DHT22;50874;24.150;-110.320;2023-09-07T01:26:37;32.80;99.90
64501;DHT22;50874;24.150;-110.320;2023-09-07T01:29:05;32.80;99.90
64501;DHT22;50874;24.150;-110.320;2023-09-07T01:31:35;32.70;99.90
64501;DHT22;50874;24.150;-110.320;2023-09-07T01:34:02;32.60;99.90
64501;DHT22;50874;24.150;-110.320;2023-09-07T01:36:29;32.60;99.90
64501;DHT22;50874;24.150;-110.320;2023-09-07T01:38:55;32.60;99.90
64501;DHT22;50874;24.150;-110.320;2023-09-07T01:41:22;32.50;99.90
64501;DHT22;50874;24.150;-110.320;2023-09-07T01:43:48;32.60;99.90
64501;DHT22;50874;24.150;-110.320;2023-09-07T01:46:15;32.60;99.90
64501;DHT22;50874;24.150;-110.320;2023-09-07T01:48:41;32.60;99.90
64501;DHT22;50874;24.150;-110.320;2023-09-07T01:51:08;32.60;99.90
64501;DHT22;50874;24.150;-110.320;2023-09-07T01:53:34;32.70;99.90
64501;DHT22;50874;24.150;-110.320;2023-09-07T01:56:01;32.80;99.90
64501;DHT22;50874;24.150;-110.320;2023-09-07T01:58:27;32.80;99.90
64501;DHT22;50874;24.150;-110.320;2023-09-07T02:00:57;32.80;99.90
64501;DHT22;50874;24.150;-110.320;2023-09-07T02:03:25;32.80;99.90
64501;DHT22;50874;24.150;-110.320;2023-09-07T02:05:52;32.70;99.90
64501;DHT22;50874;24.150;-110.320;2023-09-07T02:08:20;32.70;99.90
64501;DHT22;50874;24.150;-110.320;2023-09-07T02:10:46;32.70;99.90
64501;DHT22;50874;24.150;-110.320;2023-09-07T02:13:13;32.80;99.90
64501;DHT22;50874;24.150;-110.320;2023-09-07T02:15:39;32.70;99.90
64501;DHT22;50874;24.150;-110.320;2023-09-07T02:18:06;32.80;99.90
64501;DHT22;50874;24.150;-110.320;2023-09-07T02:20:33;32.80;99.90
64501;DHT22;50874;24.150;-110.320;2023-09-07T02:23:00;32.80;99.90
64501;DHT22;50874;24.150;-110.320;2023-09-07T02:25:26;32.70;99.90
64501;DHT22;50874;24.150;-110.320;2023-09-07T02:27:53;32.60;99.90
64501;DHT22;50874;24.150;-110.320;2023-09-07T02:30:20;32.60;99.90
64501;DHT22;50874;24.150;-110.320;2023-09-07T02:32:46;32.40;99.90
64501;DHT22;50874;24.150;-110.320;2023-09-07T02:35:13;32.40;99.90
64501;DHT22;50874;24.150;-110.320;2023-09-07T02:37:39;32.50;99.90
64501;DHT22;50874;24.150;-110.320;2023-09-07T02:40:06;32.70;99.90
64501;DHT22;50874;24.150;-110.320;2023-09-07T02:42:34;32.70;99.90
64501;DHT22;50874;24.150;-110.320;2023-09-07T02:45:00;32.70;99.90
64501;DHT22;50874;24.150;-110.320;2023-09-07T02:47:27;32.80;99.90
64501;DHT22;50874;24.150;-110.320;2023-09-07T02:49:53;32.70;99.90
64501;DHT22;50874;24.150;-110.320;2023-09-07T02:52:20;32.80;99.90
64501;DHT22;50874;24.150;-110.320;2023-09-07T02:54:47;32.80;99.90
64501;DHT22;50874;24.150;-110.320;2023-09-07T02:57:13;32.80;99.90
64501;DHT22;50874;24.150;-110.320;2023-09-07T02:59:40;32.80;99.90
64501;DHT22;50874;24.150;-110.320;2023-09-07T03:02:06;32.90;99.90
64501;DHT22;50874;24.150;-110.320;2023-09-07T03:04:33;32.90;99.90
64501;DHT22;50874;24.150;-110.320;2023-09-07T03:07:01;32.90;99.90
64501;DHT22;50874;24.150;-110.320;2023-09-07T03:09:28;32.90;99.90
64501;DHT22;50874;24.150;-110.320;2023-09-07T03:11:54;32.90;99.90
64501;DHT22;50874;24.150;-110.320;2023-09-07T03:14:21;32.90;99.90
64501;DHT22;50874;24.150;-110.320;2023-09-07T03:16:47;32.90;99.90
64501;DHT22;50874;24.150;-110.320;2023-09-07T03:19:18;32.90;99.90
64501;DHT22;50874;24.150;-110.320;2023-09-07T03:21:52;32.90;99.90
64501;DHT22;50874;24.150;-110.320;2023-09-07T03:24:20;32.90;99.90
64501;DHT22;50874;24.150;-110.320;2023-09-07T03:26:46;32.80;99.90
64501;DHT22;50874;24.150;-110.320;2023-09-07T03:29:12;32.70;99.90
64501;DHT22;50874;24.150;-110.320;2023-09-07T03:31:39;32.70;99.90
64501;DHT22;50874;24.150;-110.320;2023-09-07T03:34:05;32.70;99.90
64501;DHT22;50874;24.150;-110.320;2023-09-07T03:36:32;32.70;99.90
64501;DHT22;50874;24.150;-110.320;2023-09-07T03:38:58;32.70;99.90
64501;DHT22;50874;24.150;-110.320;2023-09-07T03:41:25;32.70;99.90
64501;DHT22;50874;24.150;-110.320;2023-09-07T03:43:56;32.60;99.90
64501;DHT22;50874;24.150;-110.320;2023-09-07T03:46:23;32.60;99.90
64501;DHT22;50874;24.150;-110.320;2023-09-07T03:48:50;32.60;99.90
64501;DHT22;50874;24.150;-110.320;2023-09-07T03:51:16;32.50;99.90
64501;DHT22;50874;24.150;-110.320;2023-09-07T03:53:42;32.50;99.90
64501;DHT22;50874;24.150;-110.320;2023-09-07T03:56:09;32.40;99.90
64501;DHT22;50874;24.150;-110.320;2023-09-07T03:58:35;32.40;99.90
64501;DHT22;50874;24.150;-110.320;2023-09-07T04:01:02;32.40;99.90
64501;DHT22;50874;24.150;-110.320;2023-09-07T04:03:29;32.40;99.90
64501;DHT22;50874;24.150;-110.320;2023-09-07T04:05:55;32.30;99.90
64501;DHT22;50874;24.150;-110.320;2023-09-07T04:08:21;32.40;99.90
64501;DHT22;50874;24.150;-110.320;2023-09-07T04:10:48;32.30;99.90
64501;DHT22;50874;24.150;-110.320;2023-09-07T04:13:15;32.20;99.90
64501;DHT22;50874;24.150;-110.320;2023-09-07T04:15:45;32.20;99.90
64501;DHT22;50874;24.150;-110.320;2023-09-07T04:18:12;32.10;99.90
64501;DHT22;50874;24.150;-110.320;2023-09-07T04:20:41;32.10;99.90
64501;DHT22;50874;24.150;-110.320;2023-09-07T04:23:07;32.00;99.90
64501;DHT22;50874;24.150;-110.320;2023-09-07T04:25:34;32.00;99.90
64501;DHT22;50874;24.150;-110.320;2023-09-07T04:28:00;32.00;99.90
64501;DHT22;50874;24.150;-110.320;2023-09-07T04:30:27;32.00;99.90
64501;DHT22;50874;24.150;-110.320;2023-09-07T04:32:53;32.00;99.90
64501;DHT22;50874;24.150;-110.320;2023-09-07T04:35:20;31.90;99.90
64501;DHT22;50874;24.150;-110.320;2023-09-07T04:37:46;31.90;99.90
64501;DHT22;50874;24.150;-110.320;2023-09-07T04:40:13;31.90;99.90
64501;DHT22;50874;24.150;-110.320;2023-09-07T04:42:39;31.90;99.90
64501;DHT22;50874;24.150;-110.320;2023-09-07T04:45:06;31.80;99.90
64501;DHT22;50874;24.150;-110.320;2023-09-07T04:47:33;31.80;99.90
64501;DHT22;50874;24.150;-110.320;2023-09-07T04:50:00;31.80;99.90
64501;DHT22;50874;24.150;-110.320;2023-09-07T04:52:26;31.70;99.90
64501;DHT22;50874;24.150;-110.320;2023-09-07T04:54:52;31.60;99.90
64501;DHT22;50874;24.150;-110.320;2023-09-07T04:57:19;31.70;99.90
64501;DHT22;50874;24.150;-110.320;2023-09-07T04:59:45;31.60;99.90
64501;DHT22;50874;24.150;-110.320;2023-09-07T05:02:12;31.60;99.90
64501;DHT22;50874;24.150;-110.320;2023-09-07T05:04:38;31.60;99.90
64501;DHT22;50874;24.150;-110.320;2023-09-07T05:07:05;31.40;99.90
64501;DHT22;50874;24.150;-110.320;2023-09-07T05:09:31;31.40;99.90
64501;DHT22;50874;24.150;-110.320;2023-09-07T05:11:59;31.30;99.90
64501;DHT22;50874;24.150;-110.320;2023-09-07T05:14:26;31.30;99.90
64501;DHT22;50874;24.150;-110.320;2023-09-07T05:16:53;31.20;99.90
64501;DHT22;50874;24.150;-110.320;2023-09-07T05:19:22;31.20;99.90
64501;DHT22;50874;24.150;-110.320;2023-09-07T05:21:49;31.20;99.90
64501;DHT22;50874;24.150;-110.320;2023-09-07T05:24:15;31.10;99.90
64501;DHT22;50874;24.150;-110.320;2023-09-07T05:26:42;31.10;99.90
64501;DHT22;50874;24.150;-110.320;2023-09-07T05:29:10;31.10;99.90
64501;DHT22;50874;24.150;-110.320;2023-09-07T05:31:38;31.10;99.90
64501;DHT22;50874;24.150;-110.320;2023-09-07T05:34:05;31.10;99.90
64501;DHT22;50874;24.150;-110.320;2023-09-07T05:36:31;31.00;99.90
64501;DHT22;50874;24.150;-110.320;2023-09-07T05:38:58;31.00;99.90
64501;DHT22;50874;24.150;-110.320;2023-09-07T05:41:25;31.00;99.90
64501;DHT22;50874;24.150;-110.320;2023-09-07T05:43:51;31.00;99.90
64501;DHT22;50874;24.150;-110.320;2023-09-07T05:46:18;30.90;99.90
64501;DHT22;50874;24.150;-110.320;2023-09-07T05:48:44;30.90;99.90
64501;DHT22;50874;24.150;-110.320;2023-09-07T05:51:11;30.80;99.90
64501;DHT22;50874;24.150;-110.320;2023-09-07T05:53:39;30.80;99.90
64501;DHT22;50874;24.150;-110.320;2023-09-07T05:56:05;30.70;99.90
64501;DHT22;50874;24.150;-110.320;2023-09-07T05:58:32;30.70;99.90
64501;DHT22;50874;24.150;-110.320;2023-09-07T06:00:59;30.70;99.90
64501;DHT22;50874;24.150;-110.320;2023-09-07T06:03:26;30.70;99.90
64501;DHT22;50874;24.150;-110.320;2023-09-07T06:05:53;30.70;99.90
64501;DHT22;50874;24.150;-110.320;2023-09-07T06:08:19;30.60;99.90
64501;DHT22;50874;24.150;-110.320;2023-09-07T06:10:46;30.50;99.90
64501;DHT22;50874;24.150;-110.320;2023-09-07T06:13:12;30.50;99.90
64501;DHT22;50874;24.150;-110.320;2023-09-07T06:15:38;30.50;99.90
64501;DHT22;50874;24.150;-110.320;2023-09-07T06:18:05;30.40;99.90
64501;DHT22;50874;24.150;-110.320;2023-09-07T06:20:31;30.30;99.90
64501;DHT22;50874;24.150;-110.320;2023-09-07T06:22:58;30.30;99.90
64501;DHT22;50874;24.150;-110.320;2023-09-07T06:25:24;30.30;99.90
64501;DHT22;50874;24.150;-110.320;2023-09-07T06:27:51;30.30;99.90
64501;DHT22;50874;24.150;-110.320;2023-09-07T06:30:18;30.20;99.90
64501;DHT22;50874;24.150;-110.320;2023-09-07T06:32:45;30.20;99.90
64501;DHT22;50874;24.150;-110.320;2023-09-07T06:35:13;30.20;99.90
64501;DHT22;50874;24.150;-110.320;2023-09-07T06:37:40;30.20;99.90
64501;DHT22;50874;24.150;-110.320;2023-09-07T06:40:08;30.20;99.90
64501;DHT22;50874;24.150;-110.320;2023-09-07T06:42:36;30.20;99.90
64501;DHT22;50874;24.150;-110.320;2023-09-07T06:45:03;30.20;99.90
64501;DHT22;50874;24.150;-110.320;2023-09-07T06:47:29;30.20;99.90
64501;DHT22;50874;24.150;-110.320;2023-09-07T06:49:57;30.20;99.90
64501;DHT22;50874;24.150;-110.320;2023-09-07T06:52:23;30.10;99.90
64501;DHT22;50874;24.150;-110.320;2023-09-07T06:54:53;30.20;99.90
64501;DHT22;50874;24.150;-110.320;2023-09-07T06:57:20;30.20;99.90
64501;DHT22;50874;24.150;-110.320;2023-09-07T06:59:46;30.10;99.90
64501;DHT22;50874;24.150;-110.320;2023-09-07T07:02:13;30.10;99.90
64501;DHT22;50874;24.150;-110.320;2023-09-07T07:04:39;30.00;99.90
64501;DHT22;50874;24.150;-110.320;2023-09-07T07:07:06;30.00;99.90
64501;DHT22;50874;24.150;-110.320;2023-09-07T07:09:32;29.90;99.90
64501;DHT22;50874;24.150;-110.320;2023-09-07T07:12:00;29.90;99.90
64501;DHT22;50874;24.150;-110.320;2023-09-07T07:14:29;29.90;99.90
64501;DHT22;50874;24.150;-110.320;2023-09-07T07:16:55;29.90;99.90
64501;DHT22;50874;24.150;-110.320;2023-09-07T07:19:22;29.90;99.90
64501;DHT22;50874;24.150;-110.320;2023-09-07T07:21:48;29.90;99.90
64501;DHT22;50874;24.150;-110.320;2023-09-07T07:24:15;29.90;99.90
64501;DHT22;50874;24.150;-110.320;2023-09-07T07:26:41;29.90;99.90
64501;DHT22;50874;24.150;-110.320;2023-09-07T07:29:08;29.90;99.90
64501;DHT22;50874;24.150;-110.320;2023-09-07T07:31:35;29.90;99.90
64501;DHT22;50874;24.150;-110.320;2023-09-07T07:34:02;29.90;99.90
64501;DHT22;50874;24.150;-110.320;2023-09-07T07:36:28;29.90;99.90
64501;DHT22;50874;24.150;-110.320;2023-09-07T07:38:55;29.90;99.90
64501;DHT22;50874;24.150;-110.320;2023-09-07T07:41:21;30.00;99.90
64501;DHT22;50874;24.150;-110.320;2023-09-07T07:43:48;29.90;99.90
64501;DHT22;50874;24.150;-110.320;2023-09-07T07:46:15;29.90;99.90
64501;DHT22;50874;24.150;-110.320;2023-09-07T07:48:42;29.80;99.90
64501;DHT22;50874;24.150;-110.320;2023-09-07T07:51:08;29.70;99.90
64501;DHT22;50874;24.150;-110.320;2023-09-07T07:53:35;29.70;99.90
64501;DHT22;50874;24.150;-110.320;2023-09-07T07:56:01;29.50;99.90
64501;DHT22;50874;24.150;-110.320;2023-09-07T07:58:29;29.40;99.90
64501;DHT22;50874;24.150;-110.320;2023-09-07T08:00:55;29.50;99.90
64501;DHT22;50874;24.150;-110.320;2023-09-07T08:03:23;29.40;99.90
64501;DHT22;50874;24.150;-110.320;2023-09-07T08:05:50;29.30;99.90
64501;DHT22;50874;24.150;-110.320;2023-09-07T08:08:17;29.30;99.90
64501;DHT22;50874;24.150;-110.320;2023-09-07T08:10:45;29.30;99.90
64501;DHT22;50874;24.150;-110.320;2023-09-07T08:13:12;29.30;99.90
64501;DHT22;50874;24.150;-110.320;2023-09-07T08:15:39;29.40;99.90
64501;DHT22;50874;24.150;-110.320;2023-09-07T08:18:06;29.40;99.90
64501;DHT22;50874;24.150;-110.320;2023-09-07T08:20:32;29.40;99.90
64501;DHT22;50874;24.150;-110.320;2023-09-07T08:22:59;29.30;99.90
64501;DHT22;50874;24.150;-110.320;2023-09-07T08:25:29;29.30;99.90
64501;DHT22;50874;24.150;-110.320;2023-09-07T08:27:56;29.30;99.90
64501;DHT22;50874;24.150;-110.320;2023-09-07T08:30:25;29.30;99.90
64501;DHT22;50874;24.150;-110.320;2023-09-07T08:32:52;29.30;99.90
64501;DHT22;50874;24.150;-110.320;2023-09-07T08:35:18;29.30;99.90
64501;DHT22;50874;24.150;-110.320;2023-09-07T08:37:45;29.40;99.90
64501;DHT22;50874;24.150;-110.320;2023-09-07T08:40:11;29.40;99.90
64501;DHT22;50874;24.150;-110.320;2023-09-07T08:42:39;29.40;99.90
64501;DHT22;50874;24.150;-110.320;2023-09-07T08:45:08;29.50;99.90
64501;DHT22;50874;24.150;-110.320;2023-09-07T08:47:36;29.50;99.90
64501;DHT22;50874;24.150;-110.320;2023-09-07T08:50:05;29.40;99.90
64501;DHT22;50874;24.150;-110.320;2023-09-07T08:52:35;29.50;99.90
64501;DHT22;50874;24.150;-110.320;2023-09-07T08:55:02;29.50;99.90
64501;DHT22;50874;24.150;-110.320;2023-09-07T08:57:32;29.60;99.90
64501;DHT22;50874;24.150;-110.320;2023-09-07T08:59:59;29.50;99.90
64501;DHT22;50874;24.150;-110.320;2023-09-07T09:02:25;29.60;99.90
64501;DHT22;50874;24.150;-110.320;2023-09-07T09:04:52;29.50;99.90
64501;DHT22;50874;24.150;-110.320;2023-09-07T09:07:19;29.50;99.90
64501;DHT22;50874;24.150;-110.320;2023-09-07T09:09:47;29.50;99.90
64501;DHT22;50874;24.150;-110.320;2023-09-07T09:12:13;29.50;99.90
64501;DHT22;50874;24.150;-110.320;2023-09-07T09:14:44;29.50;99.90
64501;DHT22;50874;24.150;-110.320;2023-09-07T09:17:14;29.40;99.90
64501;DHT22;50874;24.150;-110.320;2023-09-07T09:19:41;29.40;99.90
64501;DHT22;50874;24.150;-110.320;2023-09-07T09:22:08;29.40;99.90
64501;DHT22;50874;24.150;-110.320;2023-09-07T09:24:35;29.40;99.90
64501;DHT22;50874;24.150;-110.320;2023-09-07T09:27:02;29.40;99.90
64501;DHT22;50874;24.150;-110.320;2023-09-07T09:29:28;29.40;99.90
64501;DHT22;50874;24.150;-110.320;2023-09-07T09:31:55;29.40;99.90
64501;DHT22;50874;24.150;-110.320;2023-09-07T09:34:22;29.40;99.90
64501;DHT22;50874;24.150;-110.320;2023-09-07T09:36:49;29.40;99.90
64501;DHT22;50874;24.150;-110.320;2023-09-07T09:39:25;29.30;99.90
64501;DHT22;50874;24.150;-110.320;2023-09-07T09:41:52;29.30;99.90
64501;DHT22;50874;24.150;-110.320;2023-09-07T09:44:22;29.30;99.90
64501;DHT22;50874;24.150;-110.320;2023-09-07T09:46:52;29.30;99.90
64501;DHT22;50874;24.150;-110.320;2023-09-07T09:49:22;29.30;99.90
64501;DHT22;50874;24.150;-110.320;2023-09-07T09:51:50;29.30;99.90
64501;DHT22;50874;24.150;-110.320;2023-09-07T09:54:20;29.30;99.90
64501;DHT22;50874;24.150;-110.320;2023-09-07T09:56:48;29.30;99.90
64501;DHT22;50874;24.150;-110.320;2023-09-07T09:59:15;29.30;99.90
64501;DHT22;50874;24.150;-110.320;2023-09-07T10:01:44;29.30;99.90
64501;DHT22;50874;24.150;-110.320;2023-09-07T10:04:13;29.30;99.90
64501;DHT22;50874;24.150;-110.320;2023-09-07T10:06:53;29.20;99.90
64501;DHT22;50874;24.150;-110.320;2023-09-07T10:09:19;29.20;99.90
64501;DHT22;50874;24.150;-110.320;2023-09-07T10:11:57;29.20;99.90
64501;DHT22;50874;24.150;-110.320;2023-09-07T10:14:25;29.10;99.90
64501;DHT22;50874;24.150;-110.320;2023-09-07T10:16:53;29.20;99.90
64501;DHT22;50874;24.150;-110.320;2023-09-07T10:19:26;29.20;99.90
64501;DHT22;50874;24.150;-110.320;2023-09-07T10:21:57;29.10;99.90
64501;DHT22;50874;24.150;-110.320;2023-09-07T10:24:25;29.10;99.90
64501;DHT22;50874;24.150;-110.320;2023-09-07T10:27:06;29.00;99.90
64501;DHT22;50874;24.150;-110.320;2023-09-07T10:29:46;29.00;99.90
64501;DHT22;50874;24.150;-110.320;2023-09-07T10:32:14;29.00;99.90
64501;DHT22;50874;24.150;-110.320;2023-09-07T10:34:42;29.00;99.90
64501;DHT22;50874;24.150;-110.320;2023-09-07T10:37:12;28.90;99.90
64501;DHT22;50874;24.150;-110.320;2023-09-07T10:39:41;28.90;99.90
64501;DHT22;50874;24.150;-110.320;2023-09-07T10:42:26;28.90;99.90
64501;DHT22;50874;24.150;-110.320;2023-09-07T10:44:53;28.80;99.90
64501;DHT22;50874;24.150;-110.320;2023-09-07T10:47:19;28.80;99.90
64501;DHT22;50874;24.150;-110.320;2023-09-07T10:49:46;28.80;99.90
64501;DHT22;50874;24.150;-110.320;2023-09-07T10:52:13;28.80;99.90
64501;DHT22;50874;24.150;-110.320;2023-09-07T10:54:39;28.80;99.90
64501;DHT22;50874;24.150;-110.320;2023-09-07T10:57:11;28.80;99.90
64501;DHT22;50874;24.150;-110.320;2023-09-07T10:59:46;28.70;99.90
64501;DHT22;50874;24.150;-110.320;2023-09-07T11:02:15;28.70;99.90
64501;DHT22;50874;24.150;-110.320;2023-09-07T11:04:42;28.70;99.90
64501;DHT22;50874;24.150;-110.320;2023-09-07T11:07:08;28.70;99.90
64501;DHT22;50874;24.150;-110.320;2023-09-07T11:09:40;28.70;99.90
64501;DHT22;50874;24.150;-110.320;2023-09-07T11:12:07;28.70;99.90
64501;DHT22;50874;24.150;-110.320;2023-09-07T11:14:34;28.70;99.90
64501;DHT22;50874;24.150;-110.320;2023-09-07T11:17:01;28.70;99.90
64501;DHT22;50874;24.150;-110.320;2023-09-07T11:19:32;28.70;99.90
64501;DHT22;50874;24.150;-110.320;2023-09-07T11:21:59;28.60;99.90
64501;DHT22;50874;24.150;-110.320;2023-09-07T11:24:26;28.60;99.90
64501;DHT22;50874;24.150;-110.320;2023-09-07T11:26:52;28.60;99.90
64501;DHT22;50874;24.150;-110.320;2023-09-07T11:29:19;28.60;99.90
64501;DHT22;50874;24.150;-110.320;2023-09-07T11:31:45;28.60;99.90
64501;DHT22;50874;24.150;-110.320;2023-09-07T11:34:15;28.60;99.90
64501;DHT22;50874;24.150;-110.320;2023-09-07T11:36:42;28.60;99.90
64501;DHT22;50874;24.150;-110.320;2023-09-07T11:39:09;28.60;99.90
64501;DHT22;50874;24.150;-110.320;2023-09-07T11:41:43;28.60;99.90
64501;DHT22;50874;24.150;-110.320;2023-09-07T11:44:10;28.50;99.90
64501;DHT22;50874;24.150;-110.320;2023-09-07T11:46:37;28.50;99.90
64501;DHT22;50874;24.150;-110.320;2023-09-07T11:49:04;28.50;99.90
64501;DHT22;50874;24.150;-110.320;2023-09-07T11:51:31;28.50;99.90
64501;DHT22;50874;24.150;-110.320;2023-09-07T11:53:58;28.50;99.90
64501;DHT22;50874;24.150;-110.320;2023-09-07T11:56:25;28.40;99.90
64501;DHT22;50874;24.150;-110.320;2023-09-07T11:58:51;28.50;99.90
64501;DHT22;50874;24.150;-110.320;2023-09-07T12:01:18;28.40;99.90
64501;DHT22;50874;24.150;-110.320;2023-09-07T12:03:44;28.40;99.90
64501;DHT22;50874;24.150;-110.320;2023-09-07T12:06:12;28.40;99.90
64501;DHT22;50874;24.150;-110.320;2023-09-07T12:08:42;28.50;99.90
64501;DHT22;50874;24.150;-110.320;2023-09-07T12:11:23;28.40;99.90
64501;DHT22;50874;24.150;-110.320;2023-09-07T12:13:50;28.40;99.90
64501;DHT22;50874;24.150;-110.320;2023-09-07T12:16:16;28.40;99.90
64501;DHT22;50874;24.150;-110.320;2023-09-07T12:18:43;28.40;99.90
64501;DHT22;50874;24.150;-110.320;2023-09-07T12:21:09;28.50;99.90
64501;DHT22;50874;24.150;-110.320;2023-09-07T12:23:35;28.40;99.90
64501;DHT22;50874;24.150;-110.320;2023-09-07T12:26:02;28.40;99.90
64501;DHT22;50874;24.150;-110.320;2023-09-07T12:28:30;28.30;99.90
64501;DHT22;50874;24.150;-110.320;2023-09-07T12:30:57;28.40;99.90
64501;DHT22;50874;24.150;-110.320;2023-09-07T12:33:24;28.40;99.90
64501;DHT22;50874;24.150;-110.320;2023-09-07T12:35:51;28.30;99.90
64501;DHT22;50874;24.150;-110.320;2023-09-07T12:38:18;28.30;99.90
64501;DHT22;50874;24.150;-110.320;2023-09-07T12:40:47;28.30;99.90
64501;DHT22;50874;24.150;-110.320;2023-09-07T12:43:13;28.30;99.90
64501;DHT22;50874;24.150;-110.320;2023-09-07T12:45:40;28.30;99.90
64501;DHT22;50874;24.150;-110.320;2023-09-07T12:48:06;28.30;99.90
64501;DHT22;50874;24.150;-110.320;2023-09-07T12:50:33;28.30;99.90
64501;DHT22;50874;24.150;-110.320;2023-09-07T12:52:59;28.20;99.90
64501;DHT22;50874;24.150;-110.320;2023-09-07T12:55:26;28.20;99.90
64501;DHT22;50874;24.150;-110.320;2023-09-07T12:57:53;28.30;99.90
64501;DHT22;50874;24.150;-110.320;2023-09-07T13:00:20;28.30;99.90
64501;DHT22;50874;24.150;-110.320;2023-09-07T13:02:46;28.30;99.90
64501;DHT22;50874;24.150;-110.320;2023-09-07T13:05:13;28.30;99.90
64501;DHT22;50874;24.150;-110.320;2023-09-07T13:07:39;28.30;99.90
64501;DHT22;50874;24.150;-110.320;2023-09-07T13:10:07;28.30;99.90
64501;DHT22;50874;24.150;-110.320;2023-09-07T13:12:33;28.30;99.90
64501;DHT22;50874;24.150;-110.320;2023-09-07T13:15:00;28.30;99.90
64501;DHT22;50874;24.150;-110.320;2023-09-07T13:17:26;28.30;99.90
64501;DHT22;50874;24.150;-110.320;2023-09-07T13:19:53;28.30;99.90
64501;DHT22;50874;24.150;-110.320;2023-09-07T13:22:19;28.40;99.90
64501;DHT22;50874;24.150;-110.320;2023-09-07T13:24:45;28.40;99.90
64501;DHT22;50874;24.150;-110.320;2023-09-07T13:27:12;28.40;99.90
64501;DHT22;50874;24.150;-110.320;2023-09-07T13:29:38;28.40;99.90
64501;DHT22;50874;24.150;-110.320;2023-09-07T13:32:05;28.50;99.90
64501;DHT22;50874;24.150;-110.320;2023-09-07T13:34:31;28.50;99.90
64501;DHT22;50874;24.150;-110.320;2023-09-07T13:36:58;28.60;99.90
64501;DHT22;50874;24.150;-110.320;2023-09-07T13:39:24;28.60;99.90
64501;DHT22;50874;24.150;-110.320;2023-09-07T13:41:51;28.60;99.90
64501;DHT22;50874;24.150;-110.320;2023-09-07T13:44:17;28.60;99.90
64501;DHT22;50874;24.150;-110.320;2023-09-07T13:46:44;28.60;99.90
64501;DHT22;50874;24.150;-110.320;2023-09-07T13:49:11;28.70;99.90
64501;DHT22;50874;24.150;-110.320;2023-09-07T13:51:39;28.70;99.90
64501;DHT22;50874;24.150;-110.320;2023-09-07T13:54:06;28.80;99.90
64501;DHT22;50874;24.150;-110.320;2023-09-07T13:56:34;28.90;99.90
64501;DHT22;50874;24.150;-110.320;2023-09-07T13:59:00;28.90;99.90
64501;DHT22;50874;24.150;-110.320;2023-09-07T14:01:27;29.00;99.90
64501;DHT22;50874;24.150;-110.320;2023-09-07T14:03:53;29.00;99.90
64501;DHT22;50874;24.150;-110.320;2023-09-07T14:06:20;29.10;99.90
64501;DHT22;50874;24.150;-110.320;2023-09-07T14:08:50;29.10;99.90
64501;DHT22;50874;24.150;-110.320;2023-09-07T14:11:17;29.20;99.90
64501;DHT22;50874;24.150;-110.320;2023-09-07T14:13:43;29.30;99.90
64501;DHT22;50874;24.150;-110.320;2023-09-07T14:16:10;29.30;99.90
64501;DHT22;50874;24.150;-110.320;2023-09-07T14:18:37;29.40;99.90
64501;DHT22;50874;24.150;-110.320;2023-09-07T14:21:03;29.40;99.90
64501;DHT22;50874;24.150;-110.320;2023-09-07T14:23:30;29.50;99.90
64501;DHT22;50874;24.150;-110.320;2023-09-07T14:25:56;29.60;99.90
64501;DHT22;50874;24.150;-110.320;2023-09-07T14:28:23;29.70;99.90
64501;DHT22;50874;24.150;-110.320;2023-09-07T14:30:49;29.80;99.90
64501;DHT22;50874;24.150;-110.320;2023-09-07T14:33:17;29.80;99.90
64501;DHT22;50874;24.150;-110.320;2023-09-07T14:35:43;30.00;99.90
64501;DHT22;50874;24.150;-110.320;2023-09-07T14:38:10;30.00;99.90
64501;DHT22;50874;24.150;-110.320;2023-09-07T14:40:36;30.10;99.90
64501;DHT22;50874;24.150;-110.320;2023-09-07T14:43:04;30.20;99.90
64501;DHT22;50874;24.150;-110.320;2023-09-07T14:45:31;30.20;99.90
64501;DHT22;50874;24.150;-110.320;2023-09-07T14:47:58;30.30;99.90